Terminal Aerodrome Forecast
Issued by NWS

Home | Current Version | Previous Version | Text Only | Print | Product List | Glossary On
Versions: 1 2 3 4 5 6 7 8 9 10 11 12 13 14 15 16 17 18 19 20 21
000
FTUS43 KSGF 251120
TAFJLN
TAF
KJLN 251120Z 2512/2612 10003KT P6SM VCTS SCT090CB OVC200
     FM251300 18004KT P6SM -SHRA BKN090
      TEMPO 2513/2514 4SM TS OVC040CB
     FM251700 27008KT P6SM -SHRA VCTS OVC050CB
     FM252000 33010KT 6SM -SHRA VCTS OVC025CB
     FM252300 35008KT P6SM BKN040 PROB30 2523/2524 4SM -TSRA
      OVC025CB
     FM260800 35005KT P6SM SCT200=

USA.gov is the U.S. government's official web portal to all federal, state and local government web resources and services.